Time;durP1;ratioP1;P1;durP2;ratioP2;P2;SDS_P1;SDS_P2;PMS_P1;PMS_P2;Temp;Humidity;BMP_temperature;BMP_pressure;BME280_temperature;BME280_humidity;BME280_pressure;Samples;Min_cycle;Max_cycle;Signal;HPM_P1;HPM_P2
2021/01/13 00:01:02;;;;;;;16.52;5.05;;;1.90;92.60;;;;;;5119940;27;20055;-81
2021/01/13 00:03:28;;;;;;;17.77;5.75;;;1.90;92.60;;;;;;5096418;27;20068;-81
2021/01/13 00:05:54;;;;;;;17.58;5.18;;;1.90;92.50;;;;;;5100545;27;20024;-81
2021/01/13 00:08:19;;;;;;;19.60;5.38;;;1.90;92.50;;;;;;5081988;28;20030;-81
2021/01/13 00:10:45;;;;;;;17.73;5.70;;;1.90;92.60;;;;;;5070709;28;20475;-81
2021/01/13 00:13:10;;;;;;;23.90;6.65;;;1.90;92.50;;;;;;5072901;28;20069;-81
2021/01/13 00:15:36;;;;;;;16.55;5.03;;;1.90;92.60;;;;;;5102488;27;20042;-81
2021/01/13 00:18:02;;;;;;;23.23;6.05;;;1.90;92.50;;;;;;5076851;28;20484;-81
2021/01/13 00:20:28;;;;;;;22.80;6.13;;;1.90;92.50;;;;;;5093330;28;20032;-81
2021/01/13 00:22:53;;;;;;;18.20;5.88;;;1.90;92.50;;;;;;5117587;27;20045;-81
2021/01/13 00:25:19;;;;;;;21.85;6.82;;;1.90;92.60;;;;;;5113124;27;20156;-81
2021/01/13 00:27:45;;;;;;;23.08;6.65;;;1.90;92.60;;;;;;5091191;28;20062;-82
2021/01/13 00:30:11;;;;;;;24.65;6.55;;;1.90;92.60;;;;;;5079323;27;20020;-81
2021/01/13 00:32:37;;;;;;;24.75;7.22;;;1.90;92.70;;;;;;5110652;28;20027;-81
2021/01/13 00:35:03;;;;;;;26.10;6.03;;;1.90;92.70;;;;;;5075405;28;20027;-80
2021/01/13 00:37:29;;;;;;;18.05;6.50;;;2.00;92.80;;;;;;5126518;27;20027;-81
2021/01/13 00:39:55;;;;;;;20.77;6.40;;;2.00;92.80;;;;;;5081711;28;20362;-81
2021/01/13 00:42:20;;;;;;;27.48;6.70;;;2.00;92.90;;;;;;5082261;28;20036;-81
2021/01/13 00:44:46;;;;;;;16.70;6.20;;;2.10;93.10;;;;;;5099448;27;20030;-81
2021/01/13 00:47:15;;;;;;;18.85;5.38;;;2.10;92.90;;;;;;5102725;27;20060;-80
2021/01/13 00:49:41;;;;;;;22.48;6.03;;;2.10;92.90;;;;;;5091333;28;20031;-81
2021/01/13 00:52:10;;;;;;;19.55;5.88;;;2.10;92.90;;;;;;5093169;28;20032;-81
2021/01/13 00:54:35;;;;;;;18.42;5.60;;;2.20;92.90;;;;;;5122272;27;20031;-81
2021/01/13 00:57:02;;;;;;;20.52;6.05;;;2.20;92.90;;;;;;5104514;28;20085;-81
2021/01/13 00:59:28;;;;;;;23.92;6.47;;;2.10;92.90;;;;;;5095270;28;20549;-81
2021/01/13 01:01:53;;;;;;;21.65;6.45;;;2.20;93.00;;;;;;5098053;28;20020;-81
2021/01/13 01:04:19;;;;;;;22.33;6.72;;;2.20;93.00;;;;;;5092419;28;20024;-81
2021/01/13 01:06:49;;;;;;;14.88;5.68;;;2.10;92.90;;;;;;5089579;27;20023;-81
2021/01/13 01:09:15;;;;;;;18.98;6.20;;;2.10;92.90;;;;;;5100909;28;20074;-81
2021/01/13 01:11:41;;;;;;;29.27;6.68;;;2.10;92.90;;;;;;5098557;27;20012;-82
2021/01/13 01:14:08;;;;;;;26.10;6.20;;;2.10;92.90;;;;;;5084358;28;20034;-82
2021/01/13 01:16:36;;;;;;;15.15;5.57;;;2.10;92.90;;;;;;5087198;28;20110;-81
2021/01/13 01:19:03;;;;;;;13.02;5.75;;;2.10;92.90;;;;;;5095643;28;20031;-81
2021/01/13 01:21:29;;;;;;;16.83;5.95;;;2.00;92.90;;;;;;5104127;28;20027;-81
2021/01/13 01:23:55;;;;;;;22.40;5.47;;;2.00;92.90;;;;;;5112320;27;20027;-81
2021/01/13 01:26:20;;;;;;;16.77;5.88;;;2.00;93.20;;;;;;5122862;27;20363;-81
2021/01/13 01:28:46;;;;;;;18.20;6.38;;;2.00;92.90;;;;;;5096995;28;21691;-81
2021/01/13 01:31:12;;;;;;;16.67;6.10;;;2.00;92.90;;;;;;5120640;27;20055;-81
2021/01/13 01:33:38;;;;;;;19.83;6.50;;;2.10;93.00;;;;;;5094519;28;20431;-81
2021/01/13 01:36:04;;;;;;;19.35;6.85;;;2.10;93.00;;;;;;5113904;28;20112;-82
2021/01/13 01:38:29;;;;;;;19.58;6.35;;;2.10;93.00;;;;;;5076104;28;20043;-82
2021/01/13 01:41:07;;;;;;;14.75;6.07;;;2.10;93.00;;;;;;5090759;28;20877;-81
2021/01/13 01:43:32;;;;;;;24.15;8.75;;;2.20;93.00;;;;;;5122274;27;20081;-81
2021/01/13 01:45:58;;;;;;;25.63;7.88;;;2.20;93.00;;;;;;5115774;27;20027;-81
2021/01/13 01:48:58;;;;;;;23.67;7.57;;;2.20;93.00;;;;;;5106623;28;20487;-81
2021/01/13 01:51:48;;;;;;;19.70;7.55;;;2.30;93.00;;;;;;5094621;28;20511;-79
2021/01/13 01:54:22;;;;;;;27.40;8.20;;;2.30;93.00;;;;;;5074222;27;20039;-79
2021/01/13 01:56:54;;;;;;;25.98;7.90;;;2.30;93.00;;;;;;5103690;28;20047;-79
2021/01/13 01:59:48;;;;;;;23.08;9.02;;;2.20;93.00;;;;;;5115217;28;20168;-79
2021/01/13 02:02:16;;;;;;;17.73;7.47;;;2.20;93.00;;;;;;5087839;28;20487;-78
2021/01/13 02:04:43;;;;;;;23.80;9.33;;;2.20;93.00;;;;;;5098742;28;20030;-78
2021/01/13 02:07:08;;;;;;;26.13;9.52;;;2.20;93.00;;;;;;5098141;28;20031;-78
2021/01/13 02:09:35;;;;;;;19.13;8.85;;;2.20;93.00;;;;;;5099627;27;20063;-78
2021/01/13 02:12:09;;;;;;;24.27;8.05;;;2.20;93.00;;;;;;5100839;28;20525;-78
2021/01/13 02:14:35;;;;;;;16.50;7.72;;;2.20;93.00;;;;;;5115213;28;20058;-78
2021/01/13 02:17:06;;;;;;;15.95;7.75;;;2.20;93.00;;;;;;5123770;27;20043;-78
2021/01/13 02:19:48;;;;;;;23.83;8.02;;;2.20;93.00;;;;;;5100976;28;20039;-79
2021/01/13 02:22:15;;;;;;;19.08;7.95;;;2.10;93.00;;;;;;5106011;28;20114;-78
2021/01/13 02:24:58;;;;;;;20.33;8.43;;;2.10;93.00;;;;;;5120603;27;20523;-78
2021/01/13 02:28:02;;;;;;;15.93;8.75;;;2.10;93.00;;;;;;5094938;28;20034;-78
2021/01/13 02:30:35;;;;;;;20.75;8.45;;;2.10;93.10;;;;;;5098521;27;20392;-78
2021/01/13 02:33:09;;;;;;;27.00;9.65;;;2.10;93.00;;;;;;5112900;27;20034;-78
2021/01/13 02:36:06;;;;;;;23.95;9.85;;;2.10;93.10;;;;;;5114074;27;20040;-79
2021/01/13 02:38:34;;;;;;;23.38;9.77;;;2.10;93.10;;;;;;5113951;27;20024;-78
2021/01/13 02:40:59;;;;;;;21.60;11.02;;;2.10;93.00;;;;;;5086921;28;20089;-78
2021/01/13 02:43:29;;;;;;;29.52;11.80;;;2.10;93.00;;;;;;5092403;28;20107;-78
2021/01/13 02:45:58;;;;;;;21.58;10.48;;;2.10;93.00;;;;;;5089972;28;20062;-78
2021/01/13 02:48:24;;;;;;;;;;;2.00;93.00;;;;;;5099755;28;20473;-78
2021/01/13 02:50:50;;;;;;;29.55;11.23;;;2.00;93.10;;;;;;5121100;27;20040;-78
2021/01/13 02:53:15;;;;;;;30.40;13.23;;;2.00;93.10;;;;;;5111783;27;20029;-78
2021/01/13 02:55:47;;;;;;;30.77;13.90;;;2.00;93.20;;;;;;5092040;27;20070;-78
2021/01/13 02:58:18;;;;;;;36.38;14.05;;;2.00;93.30;;;;;;5104884;27;20031;-78
2021/01/13 03:00:44;;;;;;;29.50;13.30;;;2.00;93.30;;;;;;5132311;27;20030;-79
2021/01/13 03:03:11;;;;;;;25.10;12.90;;;2.00;93.30;;;;;;5086876;28;20433;-78
2021/01/13 03:05:37;;;;;;;33.20;13.35;;;2.00;93.40;;;;;;5105935;27;20110;-79
2021/01/13 03:08:07;;;;;;;30.17;12.63;;;2.00;93.40;;;;;;5076917;28;20173;-78
2021/01/13 03:10:36;;;;;;;36.20;13.93;;;2.00;93.40;;;;;;5105380;27;20099;-78
2021/01/13 03:13:04;;;;;;;30.67;13.00;;;2.10;93.50;;;;;;5098816;27;20023;-78
2021/01/13 03:15:33;;;;;;;28.35;13.40;;;2.00;93.60;;;;;;5104317;27;20031;-78
2021/01/13 03:18:10;;;;;;;26.80;11.80;;;2.00;93.50;;;;;;5120945;27;20027;-78
2021/01/13 03:20:42;;;;;;;30.88;13.48;;;2.10;93.50;;;;;;5121390;27;20051;-78
2021/01/13 03:23:34;;;;;;;27.55;12.60;;;2.00;93.40;;;;;;5109664;28;20039;-78
2021/01/13 03:26:02;;;;;;;30.23;12.32;;;2.00;93.50;;;;;;5096012;28;20488;-79
2021/01/13 03:28:36;;;;;;;24.50;11.52;;;2.00;93.50;;;;;;5105569;27;20118;-78
2021/01/13 03:31:03;;;;;;;32.60;13.50;;;2.00;93.50;;;;;;5134833;27;20019;-78
2021/01/13 03:33:56;;;;;;;35.20;14.63;;;2.00;93.50;;;;;;5083670;28;20443;-78
2021/01/13 03:36:51;;;;;;;28.30;12.00;;;2.10;93.50;;;;;;5097883;27;20019;-79
2021/01/13 03:39:21;;;;;;;25.50;11.63;;;2.10;93.50;;;;;;5085513;27;20030;-78
2021/01/13 03:41:53;;;;;;;23.33;11.23;;;2.20;93.50;;;;;;5095784;28;20488;-78
2021/01/13 03:44:48;;;;;;;21.80;11.02;;;2.20;93.60;;;;;;5104178;28;20110;-78
2021/01/13 03:47:35;;;;;;;26.90;11.60;;;2.20;93.60;;;;;;5073780;28;20027;-78
2021/01/13 03:50:32;;;;;;;34.15;11.15;;;2.30;93.60;;;;;;5131298;27;20031;-79
2021/01/13 03:52:59;;;;;;;35.05;12.43;;;2.40;93.60;;;;;;5107932;28;20077;-79
2021/01/13 03:55:30;;;;;;;28.15;11.07;;;2.40;93.60;;;;;;5104653;27;20035;-78
2021/01/13 03:58:08;;;;;;;27.52;10.50;;;2.40;93.60;;;;;;5116282;27;20348;-79
2021/01/13 04:00:52;;;;;;;30.52;12.43;;;2.50;93.70;;;;;;5086464;27;20110;-78
2021/01/13 04:03:25;;;;;;;25.95;11.07;;;2.50;93.70;;;;;;5118497;27;20572;-78
2021/01/13 04:06:08;;;;;;;33.67;12.25;;;2.50;93.60;;;;;;5110660;27;20023;-78
2021/01/13 04:08:40;;;;;;;30.17;12.77;;;2.50;93.70;;;;;;5079983;28;20511;-78
2021/01/13 04:11:17;;;;;;;27.30;11.82;;;2.50;93.60;;;;;;5110291;27;20103;-78
2021/01/13 04:13:51;;;;;;;34.97;13.93;;;2.60;93.70;;;;;;5102436;28;20039;-78
2021/01/13 04:16:20;;;;;;;28.45;12.00;;;2.60;93.70;;;;;;5115138;27;20042;-78
2021/01/13 04:18:47;;;;;;;35.85;13.50;;;2.60;93.70;;;;;;5098546;27;20093;-79
2021/01/13 04:21:15;;;;;;;34.45;13.98;;;2.50;93.70;;;;;;5108995;27;20126;-78
2021/01/13 04:23:42;;;;;;;31.77;13.52;;;2.60;93.70;;;;;;5117543;27;20034;-78
2021/01/13 04:26:09;;;;;;;32.88;13.55;;;2.60;93.70;;;;;;5106096;27;20043;-79
2021/01/13 04:28:35;;;;;;;34.15;12.52;;;2.60;93.70;;;;;;5114791;27;20102;-78
2021/01/13 04:31:02;;;;;;;29.83;12.73;;;2.50;93.90;;;;;;5099778;28;20016;-78
2021/01/13 04:33:28;;;;;;;32.45;12.55;;;2.60;93.70;;;;;;5099169;27;20502;-78
2021/01/13 04:35:54;;;;;;;25.83;10.88;;;2.60;93.70;;;;;;5100557;27;20117;-78
2021/01/13 04:38:28;;;;;;;26.38;13.35;;;2.60;93.60;;;;;;5087828;28;20092;-78
2021/01/13 04:41:17;;;;;;;23.63;11.48;;;2.60;93.60;;;;;;5083679;28;20020;-78
2021/01/13 04:43:57;;;;;;;24.83;11.80;;;2.60;93.60;;;;;;5101053;27;20031;-78
2021/01/13 04:46:36;;;;;;;24.17;11.50;;;2.60;93.60;;;;;;5119380;27;20026;-79
2021/01/13 04:49:01;;;;;;;38.50;13.20;;;2.60;93.60;;;;;;5100287;27;20089;-78
2021/01/13 04:51:31;;;;;;;41.70;15.23;;;2.60;93.60;;;;;;5115396;27;20407;-78
2021/01/13 04:53:57;;;;;;;30.77;13.05;;;2.60;93.60;;;;;;5117612;27;20045;-78
2021/01/13 04:56:25;;;;;;;27.25;12.73;;;2.60;93.60;;;;;;5063309;28;20114;-78
2021/01/13 04:59:11;;;;;;;27.30;13.90;;;2.60;93.60;;;;;;5120723;27;20460;-78
2021/01/13 05:02:08;;;;;;;27.35;13.82;;;2.50;93.60;;;;;;5084492;27;20118;-78
2021/01/13 05:05:00;;;;;;;41.50;16.73;;;2.50;93.70;;;;;;5100248;28;20054;-79
2021/01/13 05:07:38;;;;;;;35.97;15.80;;;2.50;93.70;;;;;;5099080;28;20019;-78
2021/01/13 05:10:14;;;;;;;36.78;15.80;;;2.50;93.80;;;;;;5113183;27;20110;-78
2021/01/13 05:12:55;;;;;;;38.42;15.88;;;2.60;93.90;;;;;;5101111;28;20073;-78
2021/01/13 05:15:25;;;;;;;36.20;15.38;;;2.60;94.00;;;;;;5118091;27;20083;-78
2021/01/13 05:17:58;;;;;;;31.85;14.95;;;2.60;94.00;;;;;;5118252;27;20039;-79
2021/01/13 05:20:29;;;;;;;36.15;14.85;;;2.60;94.10;;;;;;5083525;28;20029;-78
2021/01/13 05:22:56;;;;;;;27.13;13.13;;;2.60;94.00;;;;;;5102515;28;20023;-78
2021/01/13 05:25:44;;;;;;;31.55;14.48;;;2.60;94.10;;;;;;5115770;28;20051;-78
2021/01/13 05:28:13;;;;;;;36.67;16.70;;;2.60;94.10;;;;;;5114317;27;20498;-78
2021/01/13 05:30:44;;;;;;;30.33;15.55;;;2.60;94.00;;;;;;5097990;28;20076;-78
2021/01/13 05:33:12;;;;;;;27.17;12.45;;;2.50;94.00;;;;;;5102436;27;20047;-78
2021/01/13 05:35:41;;;;;;;40.77;16.13;;;2.50;94.00;;;;;;5116411;27;20034;-78
2021/01/13 05:38:17;;;;;;;45.65;16.70;;;2.50;94.00;;;;;;5099382;28;20031;-78
2021/01/13 05:40:48;;;;;;;29.33;14.23;;;2.50;94.00;;;;;;5099977;28;20027;-78
2021/01/13 05:43:15;;;;;;;37.20;16.52;;;2.40;94.00;;;;;;5111069;27;20487;-78
2021/01/13 05:45:42;;;;;;;32.80;17.05;;;2.40;93.90;;;;;;5111080;27;20093;-79
2021/01/13 05:48:22;;;;;;;38.88;16.58;;;2.40;93.90;;;;;;5102666;27;20035;-79
2021/01/13 05:50:51;;;;;;;33.70;14.45;;;2.40;94.00;;;;;;5100231;28;20387;-78
2021/01/13 05:53:17;;;;;;;37.60;13.73;;;2.40;94.00;;;;;;5106449;27;20019;-78
2021/01/13 05:55:48;;;;;;;37.42;13.73;;;2.40;94.00;;;;;;5097142;27;20044;-78
2021/01/13 05:58:14;;;;;;;28.00;13.75;;;2.30;93.90;;;;;;5090414;28;20032;-78
2021/01/13 06:00:41;;;;;;;24.52;12.88;;;2.40;93.90;;;;;;5115445;27;20027;-78
2021/01/13 06:03:11;;;;;;;29.05;13.98;;;2.40;93.90;;;;;;5110786;27;20027;-78
2021/01/13 06:05:47;;;;;;;39.10;14.88;;;2.30;93.80;;;;;;5084375;28;20035;-78
2021/01/13 06:08:13;;;;;;;35.97;15.02;;;2.30;93.90;;;;;;5091207;28;20038;-78
2021/01/13 06:10:40;;;;;;;30.90;12.88;;;2.30;93.80;;;;;;5090142;28;20024;-78
2021/01/13 06:13:06;;;;;;;32.42;15.48;;;2.30;93.80;;;;;;5082058;28;20024;-78
2021/01/13 06:15:33;;;;;;;27.83;12.85;;;2.30;93.80;;;;;;5082093;28;20039;-78
2021/01/13 06:17:59;;;;;;;26.45;12.75;;;2.30;93.80;;;;;;5081971;28;20430;-78
2021/01/13 06:20:27;;;;;;;31.85;12.30;;;2.20;93.80;;;;;;5082228;28;20039;-78
2021/01/13 06:22:56;;;;;;;32.35;12.80;;;2.30;93.80;;;;;;5093380;28;20046;-78
2021/01/13 06:25:27;;;;;;;27.55;12.63;;;2.20;93.80;;;;;;5093788;28;20048;-79
2021/01/13 06:28:24;;;;;;;33.90;14.48;;;2.20;93.80;;;;;;5115317;28;20039;-78
2021/01/13 06:31:02;;;;;;;35.42;14.45;;;2.30;93.90;;;;;;5078024;28;20026;-78
2021/01/13 06:33:34;;;;;;;29.63;14.40;;;2.20;93.80;;;;;;5105362;27;20030;-79
2021/01/13 06:36:28;;;;;;;29.55;14.50;;;2.20;93.80;;;;;;5114241;28;20054;-78
2021/01/13 06:38:55;;;;;;;25.55;13.40;;;2.20;93.80;;;;;;5086482;28;20072;-78
2021/01/13 06:41:21;;;;;;;27.98;13.30;;;2.20;93.80;;;;;;5093403;28;20028;-78
2021/01/13 06:44:14;;;;;;;31.92;15.93;;;2.20;93.80;;;;;;5095698;28;20026;-79
2021/01/13 06:46:40;;;;;;;33.30;14.75;;;2.20;93.80;;;;;;5074730;28;20029;-79
2021/01/13 06:49:15;;;;;;;34.63;15.55;;;2.20;93.80;;;;;;5106033;27;20023;-78
2021/01/13 06:51:44;;;;;;;27.20;14.32;;;2.20;93.80;;;;;;5099306;28;20602;-78
2021/01/13 06:54:13;;;;;;;38.03;14.80;;;2.10;93.80;;;;;;5086839;28;20122;-78
2021/01/13 06:56:52;;;;;;;28.42;14.10;;;2.10;93.80;;;;;;5074032;28;20059;-79
2021/01/13 06:59:20;;;;;;;31.33;13.55;;;2.10;93.80;;;;;;5095622;28;20039;-78
2021/01/13 07:01:53;;;;;;;31.00;14.30;;;2.10;93.80;;;;;;5081495;28;20076;-78
2021/01/13 07:04:20;;;;;;;30.15;14.40;;;2.10;93.80;;;;;;5097594;28;20024;-79
2021/01/13 07:07:07;;;;;;;35.80;13.88;;;2.10;93.80;;;;;;5091674;27;20046;-78
2021/01/13 07:09:38;;;;;;;40.22;16.40;;;2.10;93.80;;;;;;5111571;28;20030;-79
2021/01/13 07:12:13;;;;;;;38.15;17.25;;;2.10;93.80;;;;;;5097036;27;20478;-78
2021/01/13 07:14:44;;;;;;;31.98;15.07;;;2.10;93.80;;;;;;5106571;28;20038;-78
2021/01/13 07:17:18;;;;;;;38.92;16.27;;;2.10;94.10;;;;;;5060606;28;20035;-79
2021/01/13 07:19:51;;;;;;;29.52;14.57;;;2.00;93.90;;;;;;5114772;28;20418;-79
2021/01/13 07:22:27;;;;;;;49.97;20.55;;;2.00;93.90;;;;;;5088524;28;20035;-80
2021/01/13 07:24:54;;;;;;;36.65;14.88;;;2.00;93.90;;;;;;5084485;28;20016;-81
2021/01/13 07:27:21;;;;;;;36.47;16.75;;;2.00;93.90;;;;;;5105471;27;20042;-80
2021/01/13 07:29:51;;;;;;;38.40;15.75;;;2.00;94.00;;;;;;5105888;27;20024;-79
2021/01/13 07:32:20;;;;;;;;;;;2.00;94.00;;;;;;5113987;28;20431;-79
2021/01/13 07:34:52;;;;;;;;;;;2.00;93.90;;;;;;5119792;27;19908;-79
2021/01/13 07:37:21;;;;;;;35.40;15.43;;;2.00;93.90;;;;;;5114863;28;19991;-79
2021/01/13 07:40:01;;;;;;;38.83;17.88;;;2.00;94.00;;;;;;5091806;27;20027;-79
2021/01/13 07:42:40;;;;;;;27.00;13.90;;;1.90;94.00;;;;;;5126128;27;20028;-79
2021/01/13 07:45:17;;;;;;;29.20;14.40;;;2.00;94.00;;;;;;5110847;27;20024;-79
2021/01/13 07:47:49;;;;;;;36.30;17.20;;;1.90;94.00;;;;;;5097099;27;20776;-78
2021/01/13 07:50:16;;;;;;;30.80;16.00;;;1.90;94.00;;;;;;5086852;28;20024;-78
2021/01/13 07:52:47;;;;;;;33.40;16.80;;;1.90;94.00;;;;;;5105116;28;20042;-79
2021/01/13 07:55:18;;;;;;;34.28;15.52;;;2.00;94.10;;;;;;5115417;28;20024;-79
2021/01/13 07:57:59;;;;;;;34.70;16.95;;;2.00;94.10;;;;;;5104911;28;20027;-79
2021/01/13 08:00:27;;;;;;;42.25;16.77;;;2.00;94.10;;;;;;5128821;27;20028;-79
2021/01/13 08:03:17;;;;;;;33.00;15.70;;;2.00;94.10;;;;;;5135653;27;20020;-79
2021/01/13 08:06:20;;;;;;;39.78;19.17;;;2.10;94.10;;;;;;5117258;27;20118;-79
2021/01/13 08:09:07;;;;;;;37.08;17.20;;;2.10;94.10;;;;;;5135299;27;20027;-78
2021/01/13 08:12:00;;;;;;;44.72;16.77;;;2.20;94.20;;;;;;5116781;27;20023;-79
2021/01/13 08:14:38;;;;;;;45.42;19.73;;;2.20;94.10;;;;;;5103083;28;20115;-79
2021/01/13 08:17:36;;;;;;;34.63;17.95;;;2.20;94.10;;;;;;5094909;28;20028;-79
2021/01/13 08:20:20;;;;;;;29.95;14.52;;;2.30;94.10;;;;;;5096995;27;20020;-79
2021/01/13 08:22:59;;;;;;;32.80;15.50;;;2.30;94.10;;;;;;5116261;27;20058;-78
2021/01/13 08:25:27;;;;;;;41.28;16.48;;;2.40;94.00;;;;;;5102238;27;20026;-79
2021/01/13 08:27:58;;;;;;;33.50;16.45;;;2.40;94.00;;;;;;5116485;27;20027;-79
2021/01/13 08:30:29;;;;;;;49.13;19.23;;;2.50;94.00;;;;;;5116354;27;20686;-78
2021/01/13 08:32:56;;;;;;;32.80;17.30;;;2.50;94.00;;;;;;5116367;27;20030;-79
2021/01/13 08:35:36;;;;;;;37.63;17.80;;;2.60;94.00;;;;;;5134690;27;20084;-78
2021/01/13 08:38:07;;;;;;;34.40;17.73;;;2.60;94.10;;;;;;5113162;28;20027;-78
2021/01/13 08:40:34;;;;;;;41.97;16.58;;;2.60;94.00;;;;;;5096043;28;20031;-79
2021/01/13 08:43:17;;;;;;;32.03;16.50;;;2.70;94.30;;;;;;5079176;28;20027;-79
2021/01/13 08:45:46;;;;;;;34.97;17.23;;;2.70;94.00;;;;;;5126795;27;20011;-79
2021/01/13 08:48:14;;;;;;;34.42;17.40;;;2.70;93.90;;;;;;5116152;27;20028;-79
2021/01/13 08:50:42;;;;;;;45.03;18.90;;;2.70;93.90;;;;;;5134632;27;20023;-79
2021/01/13 08:53:22;;;;;;;30.38;16.48;;;2.70;93.90;;;;;;5134570;27;20031;-79
2021/01/13 08:55:54;;;;;;;37.30;16.15;;;2.70;93.90;;;;;;5134330;27;20019;-81
2021/01/13 08:58:34;;;;;;;33.25;16.33;;;2.70;93.90;;;;;;5093555;28;20039;-81
2021/01/13 09:01:05;;;;;;;32.22;17.08;;;2.80;93.90;;;;;;5095826;28;20096;-81
2021/01/13 09:03:43;;;;;;;43.20;18.23;;;2.80;93.90;;;;;;5095336;28;20055;-81
2021/01/13 09:06:18;;;;;;;42.88;17.33;;;2.80;93.80;;;;;;5079042;28;20120;-81
2021/01/13 09:08:47;;;;;;;30.83;16.23;;;2.80;93.80;;;;;;5113977;28;20024;-81
2021/01/13 09:11:30;;;;;;;34.28;16.95;;;2.80;93.80;;;;;;5117419;27;20027;-81
2021/01/13 09:14:15;;;;;;;37.58;17.48;;;2.90;93.80;;;;;;5116010;27;20027;-81
2021/01/13 09:16:51;;;;;;;32.83;17.25;;;2.90;93.80;;;;;;5115917;28;20475;-81
2021/01/13 09:19:34;;;;;;;38.05;16.80;;;2.90;93.80;;;;;;5134294;27;20537;-81
2021/01/13 09:22:02;;;;;;;33.67;15.25;;;3.00;93.80;;;;;;5115801;28;20029;-81
2021/01/13 09:24:55;;;;;;;31.60;17.00;;;3.00;93.70;;;;;;5134284;28;20384;-81
2021/01/13 09:27:35;;;;;;;34.00;15.95;;;3.10;93.70;;;;;;5133969;28;20058;-81
2021/01/13 09:30:08;;;;;;;31.63;15.88;;;3.10;93.70;;;;;;5115741;28;20026;-81
2021/01/13 09:32:51;;;;;;;35.15;16.63;;;3.10;93.60;;;;;;5098945;28;20035;-81
2021/01/13 09:35:30;;;;;;;29.95;16.08;;;3.10;93.60;;;;;;5134145;28;20039;-81
2021/01/13 09:38:25;;;;;;;36.65;16.05;;;3.10;93.60;;;;;;5115771;28;20034;-81
2021/01/13 09:40:51;;;;;;;37.28;16.95;;;3.10;93.60;;;;;;5107550;28;20036;-78
2021/01/13 09:43:26;;;;;;;42.10;17.35;;;3.10;93.60;;;;;;5095069;28;20016;-81
2021/01/13 09:45:53;;;;;;;26.17;16.48;;;3.20;93.60;;;;;;5092859;28;20028;-79
2021/01/13 09:48:19;;;;;;;31.83;16.20;;;3.20;93.60;;;;;;5122001;28;20043;-80
2021/01/13 09:50:56;;;;;;;26.20;16.42;;;3.20;93.50;;;;;;5096227;28;20380;-79
2021/01/13 09:53:29;;;;;;;26.80;16.13;;;3.30;93.50;;;;;;5102077;28;20042;-74
2021/01/13 09:56:00;;;;;;;39.63;17.80;;;3.40;93.50;;;;;;5122243;27;20023;-74
2021/01/13 09:58:38;;;;;;;40.15;19.67;;;3.40;93.50;;;;;;5113513;28;20150;-75
2021/01/13 10:01:28;;;;;;;36.70;18.27;;;3.40;93.30;;;;;;5104335;27;20019;-74
2021/01/13 10:03:55;;;;;;;41.03;17.70;;;3.50;93.30;;;;;;5116015;28;20023;-74
2021/01/13 10:06:24;;;;;;;33.92;18.80;;;3.50;93.30;;;;;;5126306;27;20031;-74
2021/01/13 10:08:51;;;;;;;32.37;18.87;;;3.50;93.20;;;;;;5111384;28;20026;-75
2021/01/13 10:11:19;;;;;;;43.50;22.75;;;3.50;93.30;;;;;;5130047;28;20027;-74
2021/01/13 10:13:56;;;;;;;40.00;21.88;;;3.50;93.50;;;;;;5109423;27;20045;-74
2021/01/13 10:16:22;;;;;;;37.60;20.65;;;3.50;93.30;;;;;;5128958;27;20063;-74
2021/01/13 10:18:59;;;;;;;39.60;20.45;;;3.50;93.20;;;;;;5111885;27;20062;-75
2021/01/13 10:21:40;;;;;;;36.33;20.10;;;3.50;93.20;;;;;;5126351;27;20020;-74
2021/01/13 10:24:09;;;;;;;36.97;18.13;;;3.50;93.20;;;;;;5131788;27;20011;-75
2021/01/13 10:26:45;;;;;;;40.05;22.58;;;3.50;93.20;;;;;;5128832;27;20114;-74
2021/01/13 10:29:13;;;;;;;41.05;21.48;;;3.50;93.30;;;;;;5086678;28;20069;-75
2021/01/13 10:31:39;;;;;;;32.83;18.85;;;3.50;93.30;;;;;;5116074;27;20023;-74
2021/01/13 10:34:06;;;;;;;44.42;21.00;;;3.60;93.30;;;;;;5098068;27;20031;-74
2021/01/13 10:36:36;;;;;;;42.97;20.65;;;3.70;93.40;;;;;;5126968;27;20384;-75
2021/01/13 10:39:04;;;;;;;43.92;22.40;;;3.80;93.40;;;;;;5098651;27;20065;-75
2021/01/13 10:41:46;;;;;;;34.40;18.63;;;3.90;93.40;;;;;;5118165;27;20046;-74
2021/01/13 10:44:15;;;;;;;30.75;19.10;;;4.00;93.40;;;;;;5115161;27;20028;-74
2021/01/13 10:46:51;;;;;;;39.40;18.05;;;4.10;93.30;;;;;;5101643;27;20479;-74
2021/01/13 10:49:39;;;;;;;30.80;17.70;;;4.20;93.00;;;;;;5097668;28;20500;-74
2021/01/13 10:52:20;;;;;;;31.00;16.70;;;4.20;92.90;;;;;;5116830;27;20486;-74
2021/01/13 10:54:52;;;;;;;26.55;16.05;;;4.20;92.80;;;;;;5077136;28;20062;-74
2021/01/13 10:57:29;;;;;;;33.67;18.00;;;4.20;92.90;;;;;;5104660;28;20053;-74
2021/01/13 11:00:11;;;;;;;40.35;17.88;;;4.20;92.90;;;;;;5099516;28;20028;-75
2021/01/13 11:02:37;;;;;;;29.70;16.80;;;4.30;93.00;;;;;;5097057;28;20088;-74
2021/01/13 11:05:04;;;;;;;30.23;16.13;;;4.40;92.90;;;;;;5115918;27;20430;-74
2021/01/13 11:07:40;;;;;;;34.00;17.23;;;4.40;92.90;;;;;;5107367;27;20031;-74
2021/01/13 11:10:10;;;;;;;34.30;17.55;;;4.50;92.90;;;;;;5125311;27;20030;-75
2021/01/13 11:12:36;;;;;;;30.45;17.33;;;4.60;92.90;;;;;;5120713;27;20424;-74
2021/01/13 11:15:05;;;;;;;33.67;17.73;;;4.70;92.80;;;;;;5103568;28;20123;-74
2021/01/13 11:17:32;;;;;;;;;;;4.90;92.70;;;;;;5120761;27;20157;-74
2021/01/13 11:19:59;;;;;;;38.13;15.63;;;4.90;92.30;;;;;;5096460;28;19911;-74
2021/01/13 11:22:44;;;;;;;30.38;14.68;;;5.00;92.40;;;;;;5113902;28;20020;-74
2021/01/13 11:25:36;;;;;;;23.67;13.07;;;5.00;92.40;;;;;;5115311;27;20054;-74
2021/01/13 11:28:11;;;;;;;30.13;14.45;;;5.20;92.30;;;;;;5095643;27;20032;-74
2021/01/13 11:30:39;;;;;;;27.13;12.80;;;5.20;92.20;;;;;;5093911;28;20020;-74
2021/01/13 11:33:07;;;;;;;28.08;12.63;;;5.30;92.00;;;;;;5128774;27;20027;-74
2021/01/13 11:35:33;;;;;;;26.38;11.75;;;5.20;91.80;;;;;;5110355;27;20046;-74
2021/01/13 11:38:22;;;;;;;22.58;10.80;;;5.20;91.80;;;;;;5114180;28;20406;-74
2021/01/13 11:41:03;;;;;;;30.02;11.27;;;5.30;91.80;;;;;;5106461;28;20054;-77
2021/01/13 11:43:47;;;;;;;24.27;11.02;;;5.40;91.60;;;;;;5112765;28;20032;-76
2021/01/13 11:46:22;;;;;;;20.25;9.40;;;5.60;91.40;;;;;;5096747;28;20027;-76
2021/01/13 11:48:53;;;;;;;28.95;10.95;;;5.60;91.20;;;;;;5096647;28;20460;-76
2021/01/13 11:51:22;;;;;;;22.52;10.05;;;5.60;91.20;;;;;;5114840;28;20023;-76
2021/01/13 11:53:49;;;;;;;26.70;9.80;;;5.60;90.90;;;;;;5114739;28;20084;-76
2021/01/13 11:56:15;;;;;;;21.85;10.25;;;5.80;90.80;;;;;;5099894;27;20448;-76
2021/01/13 11:58:49;;;;;;;30.27;10.05;;;6.00;90.40;;;;;;5135458;27;20105;-76
2021/01/13 12:01:15;;;;;;;21.40;9.43;;;6.10;90.00;;;;;;5116947;27;20031;-76
2021/01/13 12:03:41;;;;;;;25.63;10.88;;;5.90;88.80;;;;;;5121368;27;20106;-76
2021/01/13 12:06:07;;;;;;;25.42;10.00;;;5.80;89.10;;;;;;5096279;28;20080;-76
2021/01/13 12:08:34;;;;;;;24.30;9.88;;;5.70;89.60;;;;;;5096479;28;20027;-76
2021/01/13 12:10:59;;;;;;;24.48;10.77;;;5.60;90.00;;;;;;5115073;27;20019;-76
2021/01/13 12:13:33;;;;;;;28.02;10.73;;;5.60;90.20;;;;;;5100164;27;20034;-76
2021/01/13 12:15:59;;;;;;;28.05;10.27;;;5.50;90.40;;;;;;5102804;28;20024;-76
2021/01/13 12:18:31;;;;;;;25.95;10.70;;;5.50;90.30;;;;;;5078978;28;20027;-76
2021/01/13 12:20:57;;;;;;;21.05;10.48;;;5.50;90.50;;;;;;5114833;27;20111;-76
2021/01/13 12:23:31;;;;;;;19.65;10.20;;;5.50;90.40;;;;;;5116171;27;20019;-76
2021/01/13 12:26:21;;;;;;;24.77;9.98;;;5.50;90.60;;;;;;5134521;27;20050;-76
2021/01/13 12:28:50;;;;;;;22.55;9.88;;;5.50;90.40;;;;;;5134875;27;20043;-76
2021/01/13 12:31:20;;;;;;;17.60;9.57;;;5.50;90.30;;;;;;5134477;27;20364;-76
2021/01/13 12:33:53;;;;;;;32.28;10.00;;;5.70;90.30;;;;;;5134522;27;20031;-76
2021/01/13 12:36:21;;;;;;;22.05;10.18;;;5.80;89.70;;;;;;5092401;28;20473;-76
2021/01/13 12:38:47;;;;;;;19.75;9.90;;;5.90;88.90;;;;;;5126806;27;20102;-76
2021/01/13 12:41:30;;;;;;;37.90;9.60;;;5.90;89.50;;;;;;5134303;27;20058;-76
2021/01/13 12:44:02;;;;;;;27.52;10.10;;;5.80;90.00;;;;;;5134142;27;20075;-76
2021/01/13 12:46:36;;;;;;;28.70;10.38;;;5.80;89.60;;;;;;5108665;28;20023;-76
2021/01/13 12:49:03;;;;;;;21.63;9.50;;;5.70;89.90;;;;;;5112813;28;20031;-76
2021/01/13 12:51:30;;;;;;;22.83;9.73;;;5.80;89.30;;;;;;5110324;27;20032;-76
2021/01/13 12:53:58;;;;;;;28.50;10.30;;;5.60;89.30;;;;;;5116270;27;20047;-77
2021/01/13 12:56:28;;;;;;;26.02;9.63;;;5.60;90.10;;;;;;5127325;27;20026;-76
2021/01/13 12:58:55;;;;;;;27.80;10.73;;;5.60;90.00;;;;;;5111191;28;20115;-77
2021/01/13 13:01:22;;;;;;;25.10;9.18;;;5.60;90.10;;;;;;5095805;28;20073;-77
2021/01/13 13:03:48;;;;;;;22.42;9.85;;;5.60;90.10;;;;;;5095761;28;20038;-77
2021/01/13 13:06:29;;;;;;;27.77;9.00;;;5.60;89.90;;;;;;5095893;28;20026;-77
2021/01/13 13:08:56;;;;;;;26.63;9.30;;;5.60;90.00;;;;;;5113697;28;20019;-77